Council Grove, KS (66846)

1:53 PM CDT on March 28, 2017 (GMT -0500)
30th & Graphic Arts Rd | | Change Station

Elev 1180 ft 38.44 °N, 96.23 °W | Updated 3 minutes ago

Overcast
Overcast
53.6 °F
Feels Like 53.6 °F
N
10.0
Wind Variable Wind from East
Gusts 15.0 mph

Today
High -- | Low -- °F
--% Chance of Precip.
Yesterday
High -- | Low -- °F
Precip. -- in
Pressure 30.02 in
Visibility 9.0 miles
Clouds Overcast 1600 ft
Dew Point 48 °F
Humidity 80%
Rainfall 0.00 in
Snow Depth Not available.
7:16 AM 7:45 PM
New Moon, 1% visible
METAR KEMP 281753Z AUTO 10012KT 9SM OVC016 11/08 A3001 RMK AO2 SLP164 T01110083 10111 20094 58016
Pressure 30.02 in
Visibility 9.0 miles
Clouds Overcast 1600 ft
Dew Point 48 °F
Humidity 80%
Rainfall 0.00 in
Snow Depth Not available.
7:16 AM 7:45 PM
New Moon, 1% visible
METAR KEMP 281753Z AUTO 10012KT 9SM OVC016 11/08 A3001 RMK AO2 SLP164 T01110083 10111 20094 58016

Get Severe Weather Alerts

Thanks for signing up!

Be on the lookout for a verification email in your inbox.

You'll start receiving the daily forecast at 8 AM.

×

10-Day Weather Forecast

Almanac

Astronomy

Mar. 28, 2017 Rise Set
Actual Time
Civil Twilight
Nautical Twilight
Astronomical Twilight
Moon
Length of Visible Light
Length of Day
Tomorrow will be .
, % of the Moon is Illuminated

Today's Extremes

State Highs State Lows

Community

WunderPhotos

Upload Photos

1,962,540 photos uploaded!

WunderBlog® & News

Nearby

Air Quality

  Air Quality AQ Index Pollutant
Not available.

Snow Depth

Station Depth Elevation

Earthquake Activity

City Distance Mag. Time & Date
Minimum magnitude displayed is 2.5.

Earthquake Activity

City Distance Mag. Time & Date
Minimum magnitude displayed is 2.5.

Coastal Water Temperatures

Place Temperature

Stations

Nearby Weather Stations

Station Location Temp. Windchill Dew Point Humidity Wind Precip. Elev Updated Type
                   

Watches & Warnings

There are currently no watches in effect.